.
WxDataArchive / Data Records for 2010-03-04
2010-03-03 March 2010 2010-03-05

Data Records for Thursday, 04 March 2010

Time	Temp	Chill	HIndex	Humid	Dewpt	 Wind 	HiWind	WindDir	Rain 	Barom 
-----	----	-----	------	-----	-----	------	------	-------	-----	----- 
00:00	28.8	28.8	28.8	85	24.9	0	2	270	0.00	30.035 
00:05	28.7	28.7	28.7	85	24.8	0	1	270	0.00	30.035 
00:10	28.7	28.7	28.7	85	24.8	0	2	270	0.00	30.035 
00:15	28.5	28.5	28.5	85	24.6	0	1	270	0.00	30.034 
00:20	28.4	28.4	28.4	85	24.5	0	0	---	0.00	30.034 
00:25	28.2	28.2	28.2	85	24.3	0	0	---	0.00	30.034 
00:30	28.1	28.1	28.1	86	24.5	0	1	270	0.00	30.037 
00:35	28.1	28.1	28.1	86	24.5	0	0	---	0.00	30.037 
00:40	27.9	27.9	27.9	86	24.3	0	0	---	0.00	30.037 
00:45	27.8	27.8	27.8	86	24.2	0	1	270	0.00	30.039 
00:50	27.6	27.6	27.6	86	24.0	0	0	---	0.00	30.039 
00:55	27.6	27.6	27.6	86	24.0	0	0	---	0.00	30.039 
01:00	27.6	27.6	27.6	87	24.2	0	1	270	0.00	30.041 
01:05	27.5	27.5	27.5	87	24.1	0	1	270	0.00	30.041 
01:10	27.6	27.6	27.6	87	24.2	0	1	270	0.00	30.041 
01:15	27.6	27.6	27.6	87	24.2	0	1	270	0.00	30.043 
01:20	27.6	27.6	27.6	87	24.2	0	1	270	0.00	30.043 
01:25	27.8	27.8	27.8	86	24.2	0	2	270	0.00	30.043 
01:30	27.6	27.6	27.6	86	24.0	0	1	270	0.00	30.048 
01:35	27.6	27.6	27.6	86	24.0	0	2	270	0.00	30.048 
01:40	27.5	27.5	27.5	85	23.6	0	1	270	0.00	30.048 
01:45	27.3	27.3	27.3	85	23.4	0	0	---	0.00	30.053 
01:50	27.2	27.2	27.2	84	23.0	0	1	270	0.00	30.053 
01:55	27.0	27.0	27.0	84	22.8	0	1	270	0.00	30.053 
02:00	26.9	26.9	26.9	83	22.4	0	0	---	0.00	30.054 
02:05	26.7	26.7	26.7	83	22.2	0	0	---	0.00	30.054 
02:10	26.4	26.4	26.4	83	22.0	0	0	---	0.00	30.054 
02:15	26.1	26.1	26.1	82	21.4	0	0	---	0.00	30.053 
02:20	26.0	26.0	26.0	82	21.3	0	0	---	0.00	30.053 
02:25	25.7	25.7	25.7	82	21.0	0	0	---	0.00	30.053 
02:30	25.6	25.6	25.6	82	20.9	0	0	---	0.00	30.052 
02:35	25.3	25.3	25.3	82	20.6	0	0	---	0.00	30.052 
02:40	25.3	25.3	25.3	83	20.9	0	0	---	0.00	30.052 
02:45	25.1	25.1	25.1	83	20.7	0	0	---	0.00	30.050 
02:50	25.0	25.0	25.0	83	20.6	0	0	---	0.00	30.050 
02:55	25.0	25.0	25.0	84	20.9	0	0	---	0.00	30.050 
03:00	24.8	24.8	24.8	84	20.7	0	0	---	0.00	30.047 
03:05	24.8	24.8	24.8	84	20.7	0	0	---	0.00	30.047 
03:10	24.7	24.7	24.7	84	20.6	0	0	---	0.00	30.047 
03:15	24.7	24.7	24.7	84	20.6	0	1	270	0.00	30.045 
03:20	24.5	24.5	24.5	84	20.4	0	0	---	0.00	30.045 
03:25	24.5	24.5	24.5	84	20.4	0	0	---	0.00	30.045 
03:30	24.4	24.4	24.4	84	20.3	0	0	---	0.00	30.049 
03:35	24.4	24.4	24.4	84	20.3	0	0	---	0.00	30.049 
03:40	24.2	24.2	24.2	83	19.8	0	0	---	0.00	30.049 
03:45	24.2	24.2	24.2	83	19.8	0	1	270	0.00	30.045 
03:50	24.1	24.1	24.1	83	19.7	0	0	---	0.00	30.045 
03:55	24.1	24.1	24.1	82	19.4	0	0	---	0.00	30.045 
04:00	23.9	23.9	23.9	82	19.2	0	0	---	0.00	30.050 
04:05	23.8	23.8	23.8	81	18.8	0	0	---	0.00	30.050 
04:10	23.6	23.6	23.6	81	18.6	0	0	---	0.00	30.050 
04:15	23.5	23.5	23.5	81	18.5	0	0	---	0.00	30.053 
04:20	23.5	23.5	23.5	81	18.5	0	1	270	0.00	30.053 
04:25	23.3	23.3	23.3	80	18.1	0	0	---	0.00	30.053 
04:30	23.2	23.2	23.2	79	17.7	0	0	---	0.00	30.057 
04:35	23.0	23.0	23.0	79	17.5	0	0	---	0.00	30.057 
04:40	22.9	22.9	22.9	79	17.4	0	0	---	0.00	30.057 
04:45	22.7	22.7	22.7	78	16.9	0	0	---	0.00	30.058 
04:50	22.9	22.9	22.9	78	17.1	0	1	270	0.00	30.058 
04:55	22.9	22.9	22.9	77	16.8	0	0	---	0.00	30.058 
05:00	22.9	22.9	22.9	77	16.8	0	0	---	0.00	30.058 
05:05	22.7	22.7	22.7	77	16.6	0	0	---	0.00	30.058 
05:10	22.7	22.7	22.7	76	16.3	0	0	---	0.00	30.058 
05:15	22.7	22.7	22.7	76	16.3	0	0	---	0.00	30.063 
05:20	22.7	22.7	22.7	75	16.0	0	0	---	0.00	30.063 
05:25	22.7	22.7	22.7	75	16.0	0	0	---	0.00	30.063 
05:30	22.7	22.7	22.7	74	15.7	0	0	---	0.00	30.068 
05:35	22.7	22.7	22.7	73	15.4	0	0	---	0.00	30.068 
05:40	22.5	22.5	22.5	73	15.2	0	0	---	0.00	30.068 
05:45	22.5	22.5	22.5	72	14.9	0	0	---	0.00	30.074 
05:50	22.5	22.5	22.5	72	14.9	0	0	---	0.00	30.074 
05:55	22.5	22.5	22.5	71	14.5	0	0	---	0.00	30.074 
06:00	22.4	22.4	22.4	71	14.4	0	0	---	0.00	30.084 
06:05	22.2	22.2	22.2	71	14.3	0	0	---	0.00	30.084 
06:10	22.2	22.2	22.2	70	13.9	0	0	---	0.00	30.084 
06:15	22.2	22.2	22.2	70	13.9	0	0	---	0.00	30.089 
06:20	22.4	22.4	22.4	69	13.8	0	1	270	0.00	30.089 
06:25	22.4	22.4	22.4	69	13.8	0	0	---	0.00	30.089 
06:30	22.5	22.5	22.5	68	13.6	0	1	270	0.00	30.093 
06:35	22.7	22.7	22.7	68	13.8	0	1	270	0.00	30.093 
06:40	22.9	22.9	22.9	67	13.6	0	1	270	0.00	30.093 
06:45	22.9	22.9	22.9	66	13.3	0	1	270	0.00	30.097 
06:50	22.9	22.9	22.9	66	13.3	0	0	---	0.00	30.097 
06:55	22.9	22.9	22.9	65	12.9	0	2	270	0.00	30.097 
07:00	22.9	22.9	22.9	65	12.9	0	0	---	0.00	30.099 
07:05	22.7	22.7	22.7	65	12.7	0	0	---	0.00	30.099 
07:10	22.7	22.7	22.7	65	12.7	0	0	---	0.00	30.099 
07:15	22.9	22.9	22.9	65	12.9	0	1	270	0.00	30.108 
07:20	22.9	22.9	22.9	64	12.6	0	0	---	0.00	30.108 
07:25	22.9	22.9	22.9	64	12.6	0	0	---	0.00	30.108 
07:30	23.2	23.2	23.2	64	12.9	0	0	---	0.00	30.113 
07:35	23.5	23.5	23.5	63	12.8	0	1	270	0.00	30.113 
07:40	23.9	23.9	23.9	62	12.8	0	1	270	0.00	30.113 
07:45	24.4	24.4	24.4	61	12.9	0	1	270	0.00	30.118 
07:50	24.8	24.8	24.8	61	13.3	0	0	---	0.00	30.118 
07:55	25.1	25.1	25.1	60	13.2	0	0	---	0.00	30.118 
08:00	25.4	25.4	25.4	60	13.5	0	1	270	0.00	30.122 
08:05	25.8	25.8	25.8	59	13.5	0	1	270	0.00	30.122 
08:10	26.3	26.3	26.3	59	13.9	0	1	270	0.00	30.122 
08:15	26.7	26.7	26.7	58	13.9	0	1	270	0.00	30.124 
08:20	27.2	27.2	27.2	58	14.4	0	1	270	0.00	30.124 
08:25	27.6	27.6	27.6	56	14.0	0	1	270	0.00	30.124 
08:30	28.1	28.1	28.1	55	14.0	0	1	270	0.00	30.129 
08:35	28.5	28.5	28.5	56	14.8	0	1	270	0.00	30.129 
08:40	29.0	29.0	29.0	54	14.5	0	2	315	0.00	30.129 
08:45	29.4	29.4	29.4	54	14.8	0	1	315	0.00	30.132 
08:50	30.0	30.0	30.0	52	14.5	0	3	22	0.00	30.132 
08:55	30.6	30.6	30.6	50	14.2	0	2	248	0.00	30.132 
09:00	31.0	31.0	31.0	50	14.6	0	2	248	0.00	30.133 
09:05	31.6	31.6	31.6	49	14.7	0	2	22	0.00	30.133 
09:10	32.2	32.2	32.2	47	14.3	0	2	22	0.00	30.133 
09:15	32.7	32.7	32.7	47	14.7	1	4	22	0.00	30.134 
09:20	32.9	32.9	32.9	46	14.4	1	4	315	0.00	30.134 
09:25	33.5	33.5	33.5	46	15.0	0	4	315	0.00	30.134 
09:30	34.0	34.0	34.0	45	14.9	1	4	270	0.00	30.134 
09:35	34.6	34.6	34.6	45	15.5	1	3	315	0.00	30.134 
09:40	34.9	34.9	34.9	42	14.2	1	3	270	0.00	30.134 
09:45	35.2	35.2	35.2	41	13.9	1	3	270	0.00	30.139 
09:50	35.5	35.5	35.5	41	14.2	1	5	315	0.00	30.139 
09:55	36.0	36.0	36.0	41	14.6	0	4	292	0.00	30.139 
10:00	36.5	36.5	36.5	39	13.9	1	2	22	0.00	30.137 
10:05	36.8	36.8	36.8	40	14.8	1	3	22	0.00	30.137 
10:10	37.0	37.0	37.0	37	13.2	1	4	0	0.00	30.137 
10:15	37.3	37.3	37.3	36	12.8	1	3	338	0.00	30.146 
10:20	37.6	37.6	37.6	38	14.3	1	4	292	0.00	30.146 
10:25	37.9	37.9	37.9	35	12.7	1	2	315	0.00	30.146 
10:30	38.0	38.0	38.0	35	12.8	1	5	0	0.00	30.146 
10:35	38.2	38.2	38.2	34	12.3	1	4	292	0.00	30.146 
10:40	38.5	38.5	38.5	33	11.9	1	4	315	0.00	30.146 
10:45	38.8	38.8	38.8	34	12.9	1	5	270	0.00	30.148 
10:50	38.8	38.8	38.8	33	12.2	1	5	270	0.00	30.148 
10:55	38.9	38.9	38.9	33	12.3	1	4	338	0.00	30.148 
11:00	39.2	39.2	39.2	31	11.1	1	4	45	0.00	30.148 
11:05	39.3	39.3	39.3	33	12.6	1	4	338	0.00	30.148 
11:10	39.6	39.6	39.6	32	12.2	1	6	45	0.00	30.148 
11:15	40.1	40.1	40.1	31	11.9	1	2	0	0.00	30.151 
11:20	40.3	40.3	40.3	32	12.8	1	2	0	0.00	30.151 
11:25	40.3	40.3	40.3	31	12.1	2	6	0	0.00	30.151 
11:30	39.8	39.8	39.8	30	10.9	2	7	292	0.00	30.154 
11:35	39.8	39.8	39.8	27	8.6	2	6	292	0.00	30.154 
11:40	39.9	39.9	39.9	28	9.5	1	5	0	0.00	30.154 
11:45	39.9	39.9	39.9	28	9.5	2	11	292	0.00	30.155 
11:50	39.9	39.9	39.9	27	8.7	2	4	315	0.00	30.155 
11:55	39.9	39.9	39.9	29	10.3	1	6	315	0.00	30.155 
12:00	40.1	40.1	40.1	27	8.8	1	5	0	0.00	30.152 
12:05	40.2	40.2	40.2	28	9.7	1	5	292	0.00	30.152 
12:10	40.5	40.5	40.5	29	10.8	1	4	22	0.00	30.152 
12:15	40.8	40.8	40.8	32	13.3	1	5	338	0.00	30.153 
12:20	41.2	41.2	41.2	27	9.8	1	3	0	0.00	30.153 
12:25	41.3	41.3	41.3	27	9.9	1	3	22	0.00	30.153 
12:30	41.3	41.3	41.3	28	10.7	1	4	270	0.00	30.150 
12:35	41.5	41.5	41.5	28	10.9	0	2	0	0.00	30.150 
12:40	41.3	41.3	41.3	27	9.9	1	3	22	0.00	30.150 
12:45	41.2	41.2	41.2	27	9.8	1	4	338	0.00	30.150 
12:50	41.2	41.2	41.2	27	9.8	1	4	315	0.00	30.150 
12:55	41.2	41.2	41.2	27	9.8	1	5	22	0.00	30.150 
13:00	41.3	41.3	41.3	26	9.0	1	4	270	0.00	30.148 
13:05	41.5	41.5	41.5	27	10.0	1	5	338	0.00	30.148 
13:10	41.5	41.5	41.5	26	9.2	1	5	45	0.00	30.148 
13:15	41.6	41.6	41.6	27	10.1	1	4	0	0.00	30.144 
13:20	41.8	41.8	41.8	27	10.3	1	3	22	0.00	30.144 
13:25	42.1	42.1	42.1	28	11.4	1	4	315	0.00	30.144 
13:30	42.1	42.1	42.1	25	8.8	1	3	0	0.00	30.140 
13:35	42.1	42.1	42.1	28	11.4	1	4	22	0.00	30.140 
13:40	42.3	42.3	42.3	26	9.9	1	5	338	0.00	30.140 
13:45	42.1	42.1	42.1	25	8.8	1	4	315	0.00	30.136 
13:50	42.2	42.2	42.2	27	10.6	1	3	315	0.00	30.136 
13:55	42.3	42.3	42.3	26	9.9	1	2	315	0.00	30.136 
14:00	42.5	42.5	42.5	25	9.2	1	5	315	0.00	30.130 
14:05	42.2	42.2	42.2	25	8.9	1	4	315	0.00	30.130 
14:10	41.9	41.9	41.9	27	10.4	2	6	292	0.00	30.130 
14:15	42.2	42.2	42.2	25	8.9	2	6	270	0.00	30.134 
14:20	41.9	41.9	41.9	25	8.7	1	4	292	0.00	30.134 
14:25	42.1	42.1	42.1	24	7.9	1	4	338	0.00	30.134 
14:30	42.1	42.1	42.1	26	9.7	1	5	338	0.00	30.133 
14:35	42.2	42.2	42.2	28	11.5	1	5	292	0.00	30.133 
14:40	41.9	41.9	41.9	27	10.4	1	5	22	0.00	30.133 
14:45	41.9	41.9	41.9	25	8.7	1	5	292	0.00	30.134 
14:50	41.9	41.9	41.9	26	9.5	1	6	248	0.00	30.134 
14:55	42.1	42.1	42.1	27	10.6	1	4	270	0.00	30.134 
15:00	42.1	42.1	42.1	27	10.6	1	4	270	0.00	30.137 
15:05	41.8	41.8	41.8	27	10.3	2	7	270	0.00	30.137 
15:10	41.8	41.8	41.8	26	9.5	1	4	338	0.00	30.137 
15:15	42.1	42.1	42.1	25	8.8	1	4	270	0.00	30.139 
15:20	42.1	42.1	42.1	27	10.6	1	3	22	0.00	30.139 
15:25	41.9	41.9	41.9	26	9.5	1	5	338	0.00	30.139 
15:30	41.9	41.9	41.9	26	9.5	1	5	270	0.00	30.139 
15:35	41.9	41.9	41.9	27	10.4	1	3	270	0.00	30.139 
15:40	41.9	41.9	41.9	28	11.2	1	5	292	0.00	30.139 
15:45	41.6	41.6	41.6	27	10.1	1	4	270	0.00	30.142 
15:50	41.5	41.5	41.5	27	10.0	1	3	45	0.00	30.142 
15:55	41.3	41.3	41.3	26	9.0	1	4	22	0.00	30.142 
16:00	41.3	41.3	41.3	28	10.7	1	4	270	0.00	30.144 
16:05	41.3	41.3	41.3	28	10.7	1	3	338	0.00	30.144 
16:10	41.3	41.3	41.3	29	11.5	1	3	292	0.00	30.144 
16:15	41.3	41.3	41.3	28	10.7	1	4	315	0.00	30.145 
16:20	41.2	41.2	41.2	28	10.6	0	2	315	0.00	30.145 
16:25	41.5	41.5	41.5	30	12.4	0	3	315	0.00	30.145 
16:30	41.3	41.3	41.3	29	11.5	1	4	270	0.00	30.146 
16:35	41.2	41.2	41.2	28	10.6	1	4	338	0.00	30.146 
16:40	41.1	41.1	41.1	27	9.7	1	4	338	0.00	30.146 
16:45	40.9	40.9	40.9	29	11.1	0	2	270	0.00	30.148 
16:50	40.9	40.9	40.9	30	11.9	1	3	0	0.00	30.148 
16:55	40.8	40.8	40.8	30	11.8	1	3	338	0.00	30.148 
17:00	40.8	40.8	40.8	31	12.5	0	2	338	0.00	30.150 
17:05	40.6	40.6	40.6	30	11.6	1	3	338	0.00	30.150 
17:10	40.5	40.5	40.5	28	10.0	1	3	338	0.00	30.150 
17:15	40.5	40.5	40.5	30	11.5	0	2	338	0.00	30.152 
17:20	40.5	40.5	40.5	30	11.5	1	3	338	0.00	30.152 
17:25	40.3	40.3	40.3	30	11.4	0	2	270	0.00	30.152 
17:30	40.2	40.2	40.2	31	12.0	1	3	315	0.00	30.153 
17:35	40.1	40.1	40.1	31	11.9	1	3	338	0.00	30.153 
17:40	39.9	39.9	39.9	33	13.2	0	2	338	0.00	30.153 
17:45	39.8	39.8	39.8	35	14.4	0	2	338	0.00	30.153 
17:50	39.6	39.6	39.6	32	12.2	1	3	338	0.00	30.153 
17:55	39.5	39.5	39.5	33	12.8	1	4	45	0.00	30.153 
18:00	39.3	39.3	39.3	34	13.3	1	2	270	0.00	30.154 
18:05	39.2	39.2	39.2	35	13.9	0	1	270	0.00	30.154 
18:10	38.9	38.9	38.9	34	13.0	0	1	270	0.00	30.154 
18:15	38.8	38.8	38.8	35	13.5	0	1	292	0.00	30.154 
18:20	38.5	38.5	38.5	35	13.3	0	1	292	0.00	30.154 
18:25	38.2	38.2	38.2	35	13.0	0	1	292	0.00	30.154 
18:30	37.8	37.8	37.8	36	13.3	0	0	---	0.00	30.163 
18:35	37.3	37.3	37.3	36	12.8	0	0	---	0.00	30.163 
18:40	37.0	37.0	37.0	37	13.2	0	1	292	0.00	30.163 
18:45	36.6	36.6	36.6	37	12.8	0	0	---	0.00	30.168 
18:50	36.2	36.2	36.2	38	13.1	0	0	---	0.00	30.168 
18:55	35.8	35.8	35.8	38	12.7	0	0	---	0.00	30.168 
19:00	35.5	35.5	35.5	38	12.4	0	0	---	0.00	30.172 
19:05	35.0	35.0	35.0	39	12.6	0	0	---	0.00	30.172 
19:10	34.6	34.6	34.6	39	12.2	0	0	---	0.00	30.172 
19:15	34.3	34.3	34.3	39	11.9	0	0	---	0.00	30.175 
19:20	33.8	33.8	33.8	39	11.5	0	0	---	0.00	30.175 
19:25	33.4	33.4	33.4	39	11.1	0	0	---	0.00	30.175 
19:30	33.2	33.2	33.2	40	11.5	0	0	---	0.00	30.180 
19:35	32.9	32.9	32.9	40	11.3	0	0	---	0.00	30.180 
19:40	32.8	32.8	32.8	41	11.7	0	0	---	0.00	30.180 
19:45	32.7	32.7	32.7	41	11.6	0	0	---	0.00	30.182 
19:50	32.5	32.5	32.5	43	12.5	0	0	---	0.00	30.182 
19:55	32.1	32.1	32.1	43	12.2	0	0	---	0.00	30.182 
20:00	31.8	31.8	31.8	43	11.9	0	0	---	0.00	30.181 
20:05	31.3	31.3	31.3	43	11.4	0	0	---	0.00	30.181 
20:10	30.9	30.9	30.9	46	12.6	0	0	---	0.00	30.181 
20:15	30.4	30.4	30.4	46	12.1	0	0	---	0.00	30.180 
20:20	30.0	30.0	30.0	46	11.8	0	0	---	0.00	30.180 
20:25	29.7	29.7	29.7	47	12.0	0	0	---	0.00	30.180 
20:30	29.3	29.3	29.3	48	12.1	0	0	---	0.00	30.181 
20:35	29.0	29.0	29.0	48	11.8	0	0	---	0.00	30.181 
20:40	28.8	28.8	28.8	49	12.1	0	0	---	0.00	30.181 
20:45	28.7	28.7	28.7	51	12.9	0	0	---	0.00	30.184 
20:50	28.4	28.4	28.4	51	12.6	0	0	---	0.00	30.184 
20:55	28.1	28.1	28.1	53	13.2	0	0	---	0.00	30.184 
21:00	27.9	27.9	27.9	53	13.0	0	0	---	0.00	30.186 
21:05	27.6	27.6	27.6	54	13.2	0	0	---	0.00	30.186 
21:10	27.3	27.3	27.3	54	12.9	0	0	---	0.00	30.186 
21:15	27.2	27.2	27.2	56	13.6	0	0	---	0.00	30.182 
21:20	27.2	27.2	27.2	58	14.4	0	2	292	0.00	30.182 
21:25	27.3	27.3	27.3	58	14.5	0	0	---	0.00	30.182 
21:30	27.3	27.3	27.3	57	14.1	0	0	---	0.00	30.186 
21:35	27.3	27.3	27.3	56	13.7	0	0	---	0.00	30.186 
21:40	27.3	27.3	27.3	57	14.1	0	0	---	0.00	30.186 
21:45	27.5	27.5	27.5	57	14.3	0	0	---	0.00	30.185 
21:50	27.5	27.5	27.5	56	13.9	0	0	---	0.00	30.185 
21:55	27.5	27.5	27.5	56	13.9	0	0	---	0.00	30.185 
22:00	27.5	27.5	27.5	56	13.9	0	0	---	0.00	30.187 
22:05	27.3	27.3	27.3	57	14.1	0	0	---	0.00	30.187 
22:10	27.2	27.2	27.2	58	14.4	0	0	---	0.00	30.187 
22:15	27.2	27.2	27.2	58	14.4	0	0	---	0.00	30.187 
22:20	27.0	27.0	27.0	58	14.2	0	0	---	0.00	30.187 
22:25	27.0	27.0	27.0	58	14.2	0	0	---	0.00	30.187 
22:30	27.0	27.0	27.0	59	14.6	0	0	---	0.00	30.192 
22:35	27.2	27.2	27.2	59	14.8	0	0	---	0.00	30.192 
22:40	27.3	27.3	27.3	59	14.9	0	0	---	0.00	30.192 
22:45	27.5	27.5	27.5	59	15.1	0	0	---	0.00	30.196 
22:50	27.6	27.6	27.6	60	15.6	0	0	---	0.00	30.196 
22:55	27.6	27.6	27.6	60	15.6	0	0	---	0.00	30.196 
23:00	27.8	27.8	27.8	60	15.7	0	0	---	0.00	30.198 
23:05	27.9	27.9	27.9	61	16.2	0	0	---	0.00	30.198 
23:10	27.9	27.9	27.9	61	16.2	0	0	---	0.00	30.198 
23:15	28.1	28.1	28.1	62	16.8	0	1	292	0.00	30.196 
23:20	28.2	28.2	28.2	62	16.9	0	1	292	0.00	30.196 
23:25	28.4	28.4	28.4	63	17.4	0	0	---	0.00	30.196 
23:30	28.4	28.4	28.4	63	17.4	0	1	292	0.00	30.198 
23:35	28.4	28.4	28.4	63	17.4	0	0	---	0.00	30.198 
23:40	28.2	28.2	28.2	64	17.6	0	0	---	0.00	30.198 
23:45	28.1	28.1	28.1	64	17.5	0	1	292	0.00	30.198 
23:50	27.9	27.9	27.9	65	17.7	0	0	---	0.00	30.198 
23:55	27.8	27.8	27.8	65	17.6	0	1	292	0.00	30.198 

CoCoRaHS
IN-AL-39
A2 Web Hosting
Creative Commons License
GoDaddy
search engine by freefind advanced

loaded 2018-11-12 19:16:58 • last modified 2010-11-18 10:43:29
Privacy PolicyDisclaimer
• wx.awcolley.com is powered by PmWiki v.2002016 •
• all content (unless otherwise noted) © 2018 A W Colley